sensor_id;sensor_type;location;lat;lon;timestamp;pressure;altitude;pressure_sealevel;temperature;humidity
49122;BME280;35529;44.342;25.944;2022-11-20T00:02:22;100282.41;;;8.26;100.00
49122;BME280;35529;44.342;25.944;2022-11-20T00:04:48;100271.84;;;8.26;100.00
49122;BME280;35529;44.342;25.944;2022-11-20T00:07:14;100273.69;;;8.25;100.00
49122;BME280;35529;44.342;25.944;2022-11-20T00:09:40;100261.19;;;8.19;100.00
49122;BME280;35529;44.342;25.944;2022-11-20T00:12:06;100269.13;;;8.19;100.00
49122;BME280;35529;44.342;25.944;2022-11-20T00:14:33;100269.38;;;8.24;100.00
49122;BME280;35529;44.342;25.944;2022-11-20T00:16:59;100277.88;;;8.19;100.00
49122;BME280;35529;44.342;25.944;2022-11-20T00:19:25;100279.06;;;8.17;100.00
49122;BME280;35529;44.342;25.944;2022-11-20T00:21:51;100250.16;;;8.15;100.00
49122;BME280;35529;44.342;25.944;2022-11-20T00:24:19;100253.38;;;8.11;100.00
49122;BME280;35529;44.342;25.944;2022-11-20T00:26:45;100254.94;;;8.05;100.00
49122;BME280;35529;44.342;25.944;2022-11-20T00:29:11;100273.53;;;7.97;100.00
49122;BME280;35529;44.342;25.944;2022-11-20T00:31:37;100260.88;;;7.92;100.00
49122;BME280;35529;44.342;25.944;2022-11-20T00:34:03;100265.69;;;7.88;100.00
49122;BME280;35529;44.342;25.944;2022-11-20T00:36:31;100267.72;;;7.86;100.00
49122;BME280;35529;44.342;25.944;2022-11-20T00:38:58;100266.53;;;7.89;100.00
49122;BME280;35529;44.342;25.944;2022-11-20T00:41:27;100254.78;;;7.92;100.00
49122;BME280;35529;44.342;25.944;2022-11-20T00:43:56;100250.66;;;7.89;100.00
49122;BME280;35529;44.342;25.944;2022-11-20T00:46:24;100237.00;;;7.85;100.00
49122;BME280;35529;44.342;25.944;2022-11-20T00:48:53;100240.44;;;7.86;100.00
49122;BME280;35529;44.342;25.944;2022-11-20T00:51:20;100234.53;;;7.84;100.00
49122;BME280;35529;44.342;25.944;2022-11-20T00:53:46;100220.47;;;7.83;100.00
49122;BME280;35529;44.342;25.944;2022-11-20T00:56:14;100223.69;;;7.79;100.00
49122;BME280;35529;44.342;25.944;2022-11-20T00:58:41;100226.97;;;7.81;100.00
49122;BME280;35529;44.342;25.944;2022-11-20T01:03:34;100209.84;;;7.77;100.00
49122;BME280;35529;44.342;25.944;2022-11-20T01:06:04;100213.13;;;7.79;100.00
49122;BME280;35529;44.342;25.944;2022-11-20T01:08:32;100225.69;;;7.77;100.00
49122;BME280;35529;44.342;25.944;2022-11-20T01:10:59;100222.06;;;7.78;100.00
49122;BME280;35529;44.342;25.944;2022-11-20T01:13:25;100221.97;;;7.71;100.00
49122;BME280;35529;44.342;25.944;2022-11-20T01:18:32;100224.25;;;7.59;100.00
49122;BME280;35529;44.342;25.944;2022-11-20T01:21:03;100231.25;;;7.67;100.00
49122;BME280;35529;44.342;25.944;2022-11-20T01:23:39;100215.59;;;7.65;100.00
49122;BME280;35529;44.342;25.944;2022-11-20T01:26:08;100226.53;;;7.62;100.00
49122;BME280;35529;44.342;25.944;2022-11-20T01:28:34;100223.06;;;7.62;100.00
49122;BME280;35529;44.342;25.944;2022-11-20T01:31:00;100216.41;;;7.66;100.00
49122;BME280;35529;44.342;25.944;2022-11-20T01:33:27;100210.94;;;7.67;100.00
49122;BME280;35529;44.342;25.944;2022-11-20T01:35:53;100220.69;;;7.67;100.00
49122;BME280;35529;44.342;25.944;2022-11-20T01:38:28;100212.97;;;7.65;100.00
49122;BME280;35529;44.342;25.944;2022-11-20T01:40:54;100202.19;;;7.67;100.00
49122;BME280;35529;44.342;25.944;2022-11-20T01:43:21;100198.38;;;7.69;100.00
49122;BME280;35529;44.342;25.944;2022-11-20T01:48:28;100186.63;;;7.57;100.00
49122;BME280;35529;44.342;25.944;2022-11-20T01:50:55;100193.91;;;7.55;100.00
49122;BME280;35529;44.342;25.944;2022-11-20T01:53:24;100195.28;;;7.51;100.00
49122;BME280;35529;44.342;25.944;2022-11-20T01:55:52;100187.63;;;7.56;100.00
49122;BME280;35529;44.342;25.944;2022-11-20T01:58:20;100183.63;;;7.60;100.00
49122;BME280;35529;44.342;25.944;2022-11-20T02:00:47;100182.53;;;7.54;100.00
49122;BME280;35529;44.342;25.944;2022-11-20T02:03:15;100180.81;;;7.47;100.00
49122;BME280;35529;44.342;25.944;2022-11-20T02:05:44;100177.28;;;7.40;100.00
49122;BME280;35529;44.342;25.944;2022-11-20T02:08:12;100178.72;;;7.42;100.00
49122;BME280;35529;44.342;25.944;2022-11-20T02:10:43;100169.16;;;7.41;100.00
49122;BME280;35529;44.342;25.944;2022-11-20T02:13:14;100172.00;;;7.40;100.00
49122;BME280;35529;44.342;25.944;2022-11-20T02:16:28;100177.44;;;7.38;100.00
49122;BME280;35529;44.342;25.944;2022-11-20T02:18:56;100172.34;;;7.36;100.00
49122;BME280;35529;44.342;25.944;2022-11-20T02:21:30;100177.00;;;7.34;100.00
49122;BME280;35529;44.342;25.944;2022-11-20T02:26:31;100173.69;;;7.32;100.00
49122;BME280;35529;44.342;25.944;2022-11-20T02:29:02;100176.34;;;7.32;100.00
49122;BME280;35529;44.342;25.944;2022-11-20T02:31:35;100168.88;;;7.36;100.00
49122;BME280;35529;44.342;25.944;2022-11-20T02:34:04;100169.25;;;7.33;100.00
49122;BME280;35529;44.342;25.944;2022-11-20T02:36:30;100150.31;;;7.29;100.00
49122;BME280;35529;44.342;25.944;2022-11-20T02:38:57;100154.13;;;7.27;100.00
49122;BME280;35529;44.342;25.944;2022-11-20T02:41:30;100146.13;;;7.20;100.00
49122;BME280;35529;44.342;25.944;2022-11-20T02:43:56;100132.91;;;7.20;100.00
49122;BME280;35529;44.342;25.944;2022-11-20T02:46:22;100135.38;;;7.21;100.00
49122;BME280;35529;44.342;25.944;2022-11-20T02:48:48;100138.09;;;7.28;100.00
49122;BME280;35529;44.342;25.944;2022-11-20T02:51:14;100140.28;;;7.25;100.00
49122;BME280;35529;44.342;25.944;2022-11-20T02:53:40;100146.03;;;7.28;100.00
49122;BME280;35529;44.342;25.944;2022-11-20T02:56:06;100155.97;;;7.26;100.00
49122;BME280;35529;44.342;25.944;2022-11-20T02:58:32;100144.84;;;7.31;100.00
49122;BME280;35529;44.342;25.944;2022-11-20T03:00:58;100143.47;;;7.35;100.00
49122;BME280;35529;44.342;25.944;2022-11-20T03:03:24;100137.19;;;7.36;100.00
49122;BME280;35529;44.342;25.944;2022-11-20T03:05:50;100136.38;;;7.35;100.00
49122;BME280;35529;44.342;25.944;2022-11-20T03:08:16;100145.91;;;7.36;100.00
49122;BME280;35529;44.342;25.944;2022-11-20T03:10:42;100131.25;;;7.34;100.00
49122;BME280;35529;44.342;25.944;2022-11-20T03:13:09;100128.63;;;7.34;100.00
49122;BME280;35529;44.342;25.944;2022-11-20T03:15:35;100134.47;;;7.29;100.00
49122;BME280;35529;44.342;25.944;2022-11-20T03:18:02;100141.38;;;7.30;100.00
49122;BME280;35529;44.342;25.944;2022-11-20T03:20:28;100141.66;;;7.20;100.00
49122;BME280;35529;44.342;25.944;2022-11-20T03:22:55;100151.97;;;7.15;100.00
49122;BME280;35529;44.342;25.944;2022-11-20T03:25:21;100149.66;;;7.12;100.00
49122;BME280;35529;44.342;25.944;2022-11-20T03:27:47;100137.47;;;7.11;100.00
49122;BME280;35529;44.342;25.944;2022-11-20T03:30:14;100147.69;;;7.14;100.00
49122;BME280;35529;44.342;25.944;2022-11-20T03:32:41;100181.34;;;7.12;100.00
49122;BME280;35529;44.342;25.944;2022-11-20T03:35:07;100168.69;;;7.08;100.00
49122;BME280;35529;44.342;25.944;2022-11-20T03:37:33;100159.31;;;7.05;100.00
49122;BME280;35529;44.342;25.944;2022-11-20T03:39:59;100174.88;;;7.15;100.00
49122;BME280;35529;44.342;25.944;2022-11-20T03:42:25;100171.88;;;7.18;100.00
49122;BME280;35529;44.342;25.944;2022-11-20T03:45:10;100149.41;;;7.22;100.00
49122;BME280;35529;44.342;25.944;2022-11-20T03:47:39;100126.97;;;7.18;100.00
49122;BME280;35529;44.342;25.944;2022-11-20T03:50:07;100128.53;;;7.12;100.00
49122;BME280;35529;44.342;25.944;2022-11-20T03:52:33;100115.16;;;7.14;100.00
49122;BME280;35529;44.342;25.944;2022-11-20T03:54:59;100113.53;;;7.13;100.00
49122;BME280;35529;44.342;25.944;2022-11-20T03:57:25;100094.41;;;7.11;100.00
49122;BME280;35529;44.342;25.944;2022-11-20T03:59:51;100083.84;;;7.11;100.00
49122;BME280;35529;44.342;25.944;2022-11-20T04:02:17;100076.91;;;7.10;100.00
49122;BME280;35529;44.342;25.944;2022-11-20T04:04:44;100083.03;;;7.10;100.00
49122;BME280;35529;44.342;25.944;2022-11-20T04:07:10;100087.47;;;7.10;100.00
49122;BME280;35529;44.342;25.944;2022-11-20T04:09:36;100080.22;;;7.12;100.00
49122;BME280;35529;44.342;25.944;2022-11-20T04:12:02;100074.28;;;7.10;100.00
49122;BME280;35529;44.342;25.944;2022-11-20T04:14:28;100074.94;;;7.12;100.00
49122;BME280;35529;44.342;25.944;2022-11-20T04:16:54;100076.81;;;7.18;100.00
49122;BME280;35529;44.342;25.944;2022-11-20T04:19:20;100058.78;;;7.21;100.00
49122;BME280;35529;44.342;25.944;2022-11-20T04:21:46;100054.78;;;7.26;100.00
49122;BME280;35529;44.342;25.944;2022-11-20T04:24:12;100059.88;;;7.27;100.00
49122;BME280;35529;44.342;25.944;2022-11-20T04:26:38;100075.09;;;7.25;100.00
49122;BME280;35529;44.342;25.944;2022-11-20T04:29:05;100065.78;;;7.29;100.00
49122;BME280;35529;44.342;25.944;2022-11-20T04:31:32;100082.44;;;7.30;100.00
49122;BME280;35529;44.342;25.944;2022-11-20T04:34:02;100095.47;;;7.31;100.00
49122;BME280;35529;44.342;25.944;2022-11-20T04:36:29;100082.53;;;7.36;100.00
49122;BME280;35529;44.342;25.944;2022-11-20T04:38:59;100083.72;;;7.34;100.00
49122;BME280;35529;44.342;25.944;2022-11-20T04:41:27;100097.94;;;7.33;100.00
49122;BME280;35529;44.342;25.944;2022-11-20T04:43:55;100111.78;;;7.35;100.00
49122;BME280;35529;44.342;25.944;2022-11-20T04:46:25;100101.84;;;7.37;100.00
49122;BME280;35529;44.342;25.944;2022-11-20T04:48:52;100101.66;;;7.38;100.00
49122;BME280;35529;44.342;25.944;2022-11-20T04:51:19;100122.59;;;7.40;100.00
49122;BME280;35529;44.342;25.944;2022-11-20T04:53:45;100130.72;;;7.38;100.00
49122;BME280;35529;44.342;25.944;2022-11-20T04:56:11;100149.03;;;7.40;100.00
49122;BME280;35529;44.342;25.944;2022-11-20T04:58:38;100159.41;;;7.42;100.00
49122;BME280;35529;44.342;25.944;2022-11-20T05:01:14;100166.34;;;7.28;100.00
49122;BME280;35529;44.342;25.944;2022-11-20T05:03:41;100171.44;;;7.29;100.00
49122;BME280;35529;44.342;25.944;2022-11-20T05:06:08;100177.09;;;7.26;100.00
49122;BME280;35529;44.342;25.944;2022-11-20T05:08:35;100186.00;;;7.10;100.00
49122;BME280;35529;44.342;25.944;2022-11-20T05:11:01;100223.78;;;7.11;100.00
49122;BME280;35529;44.342;25.944;2022-11-20T05:13:28;100248.25;;;7.04;100.00
49122;BME280;35529;44.342;25.944;2022-11-20T05:15:54;100255.53;;;7.02;100.00
49122;BME280;35529;44.342;25.944;2022-11-20T05:18:20;100263.53;;;6.94;100.00
49122;BME280;35529;44.342;25.944;2022-11-20T05:20:46;100258.13;;;6.87;100.00
49122;BME280;35529;44.342;25.944;2022-11-20T05:23:12;100262.25;;;6.90;100.00
49122;BME280;35529;44.342;25.944;2022-11-20T05:25:38;100225.28;;;6.90;100.00
49122;BME280;35529;44.342;25.944;2022-11-20T05:28:04;100223.94;;;6.94;100.00
49122;BME280;35529;44.342;25.944;2022-11-20T05:30:30;100220.31;;;6.95;100.00
49122;BME280;35529;44.342;25.944;2022-11-20T05:32:56;100210.25;;;6.91;100.00
49122;BME280;35529;44.342;25.944;2022-11-20T05:35:25;100220.53;;;6.85;100.00
49122;BME280;35529;44.342;25.944;2022-11-20T05:37:51;100225.00;;;6.85;100.00
49122;BME280;35529;44.342;25.944;2022-11-20T05:40:17;100236.53;;;6.84;100.00
49122;BME280;35529;44.342;25.944;2022-11-20T05:42:43;100260.13;;;6.85;100.00
49122;BME280;35529;44.342;25.944;2022-11-20T05:45:09;100279.06;;;6.89;100.00
49122;BME280;35529;44.342;25.944;2022-11-20T05:47:35;100276.78;;;6.86;100.00
49122;BME280;35529;44.342;25.944;2022-11-20T05:50:01;100278.06;;;6.90;100.00
49122;BME280;35529;44.342;25.944;2022-11-20T05:52:28;100255.94;;;6.91;100.00
49122;BME280;35529;44.342;25.944;2022-11-20T05:54:55;100238.81;;;6.87;100.00
49122;BME280;35529;44.342;25.944;2022-11-20T05:57:21;100243.88;;;6.97;100.00
49122;BME280;35529;44.342;25.944;2022-11-20T05:59:47;100258.53;;;6.99;100.00
49122;BME280;35529;44.342;25.944;2022-11-20T06:02:13;100270.09;;;6.98;100.00
49122;BME280;35529;44.342;25.944;2022-11-20T06:04:39;100277.81;;;7.00;100.00
49122;BME280;35529;44.342;25.944;2022-11-20T06:07:05;100280.34;;;6.93;100.00
49122;BME280;35529;44.342;25.944;2022-11-20T06:09:32;100274.41;;;6.91;100.00
49122;BME280;35529;44.342;25.944;2022-11-20T06:11:58;100276.13;;;6.84;100.00
49122;BME280;35529;44.342;25.944;2022-11-20T06:14:24;100278.88;;;6.91;100.00
49122;BME280;35529;44.342;25.944;2022-11-20T06:16:53;100296.19;;;6.93;100.00
49122;BME280;35529;44.342;25.944;2022-11-20T06:19:19;100317.13;;;6.95;100.00
49122;BME280;35529;44.342;25.944;2022-11-20T06:21:47;100329.22;;;6.89;100.00
49122;BME280;35529;44.342;25.944;2022-11-20T06:24:13;100338.59;;;6.92;100.00
49122;BME280;35529;44.342;25.944;2022-11-20T06:26:39;100337.75;;;6.91;100.00
49122;BME280;35529;44.342;25.944;2022-11-20T06:29:05;100321.66;;;6.86;100.00
49122;BME280;35529;44.342;25.944;2022-11-20T06:31:31;100299.19;;;6.90;100.00
49122;BME280;35529;44.342;25.944;2022-11-20T06:34:00;100314.59;;;7.01;100.00
49122;BME280;35529;44.342;25.944;2022-11-20T06:36:27;100321.34;;;7.04;100.00
49122;BME280;35529;44.342;25.944;2022-11-20T06:38:53;100317.81;;;7.12;100.00
49122;BME280;35529;44.342;25.944;2022-11-20T06:41:19;100333.66;;;7.12;100.00
49122;BME280;35529;44.342;25.944;2022-11-20T06:43:46;100341.88;;;7.17;100.00
49122;BME280;35529;44.342;25.944;2022-11-20T06:46:12;100335.06;;;7.22;100.00
49122;BME280;35529;44.342;25.944;2022-11-20T06:48:38;100319.16;;;7.31;100.00
49122;BME280;35529;44.342;25.944;2022-11-20T06:51:05;100282.19;;;7.46;100.00
49122;BME280;35529;44.342;25.944;2022-11-20T06:53:31;100285.66;;;7.61;100.00
49122;BME280;35529;44.342;25.944;2022-11-20T06:55:57;100274.28;;;7.76;100.00
49122;BME280;35529;44.342;25.944;2022-11-20T06:58:26;100261.69;;;7.93;100.00
49122;BME280;35529;44.342;25.944;2022-11-20T07:00:52;100270.69;;;8.13;100.00
49122;BME280;35529;44.342;25.944;2022-11-20T07:03:18;100275.09;;;8.28;100.00
49122;BME280;35529;44.342;25.944;2022-11-20T07:05:44;100282.09;;;8.50;100.00
49122;BME280;35529;44.342;25.944;2022-11-20T07:08:11;100259.94;;;8.73;100.00
49122;BME280;35529;44.342;25.944;2022-11-20T07:10:38;100267.63;;;8.89;100.00
49122;BME280;35529;44.342;25.944;2022-11-20T07:13:04;100270.19;;;9.04;100.00
49122;BME280;35529;44.342;25.944;2022-11-20T07:15:32;100250.75;;;9.19;100.00
49122;BME280;35529;44.342;25.944;2022-11-20T07:17:59;100245.53;;;9.32;100.00
49122;BME280;35529;44.342;25.944;2022-11-20T07:20:27;100240.53;;;9.51;100.00
49122;BME280;35529;44.342;25.944;2022-11-20T07:22:57;100234.97;;;9.74;100.00
49122;BME280;35529;44.342;25.944;2022-11-20T07:25:24;100224.72;;;10.13;100.00
49122;BME280;35529;44.342;25.944;2022-11-20T07:27:50;100218.25;;;10.35;100.00
49122;BME280;35529;44.342;25.944;2022-11-20T07:30:17;100202.75;;;10.59;100.00
49122;BME280;35529;44.342;25.944;2022-11-20T07:32:46;100202.56;;;10.81;100.00
49122;BME280;35529;44.342;25.944;2022-11-20T07:35:12;100207.28;;;10.85;100.00
49122;BME280;35529;44.342;25.944;2022-11-20T07:37:38;100181.94;;;10.83;100.00
49122;BME280;35529;44.342;25.944;2022-11-20T07:40:04;100187.47;;;10.75;100.00
49122;BME280;35529;44.342;25.944;2022-11-20T07:42:30;100192.97;;;10.66;100.00
49122;BME280;35529;44.342;25.944;2022-11-20T07:45:02;100211.56;;;10.66;100.00
49122;BME280;35529;44.342;25.944;2022-11-20T07:47:29;100209.09;;;10.58;100.00
49122;BME280;35529;44.342;25.944;2022-11-20T07:50:00;100227.66;;;10.58;100.00
49122;BME280;35529;44.342;25.944;2022-11-20T07:52:26;100258.13;;;10.62;100.00
49122;BME280;35529;44.342;25.944;2022-11-20T07:54:55;100262.19;;;10.51;100.00
49122;BME280;35529;44.342;25.944;2022-11-20T07:57:23;100285.25;;;10.44;100.00
49122;BME280;35529;44.342;25.944;2022-11-20T07:59:49;100262.34;;;10.36;100.00
49122;BME280;35529;44.342;25.944;2022-11-20T08:02:15;100257.41;;;10.33;100.00
49122;BME280;35529;44.342;25.944;2022-11-20T08:04:41;100245.78;;;10.34;100.00
49122;BME280;35529;44.342;25.944;2022-11-20T08:07:07;100240.47;;;10.34;100.00
49122;BME280;35529;44.342;25.944;2022-11-20T08:09:33;100256.41;;;10.34;100.00
49122;BME280;35529;44.342;25.944;2022-11-20T08:11:59;100260.72;;;10.35;100.00
49122;BME280;35529;44.342;25.944;2022-11-20T08:14:44;100280.28;;;10.34;100.00
49122;BME280;35529;44.342;25.944;2022-11-20T08:17:10;100282.06;;;10.20;100.00
49122;BME280;35529;44.342;25.944;2022-11-20T08:19:37;100272.66;;;10.18;100.00
49122;BME280;35529;44.342;25.944;2022-11-20T08:22:03;100292.78;;;9.99;100.00
49122;BME280;35529;44.342;25.944;2022-11-20T08:24:29;100276.91;;;10.05;100.00
49122;BME280;35529;44.342;25.944;2022-11-20T08:26:57;100275.31;;;10.18;100.00
49122;BME280;35529;44.342;25.944;2022-11-20T08:29:23;100269.66;;;10.28;100.00
49122;BME280;35529;44.342;25.944;2022-11-20T08:31:51;100257.63;;;10.32;100.00
49122;BME280;35529;44.342;25.944;2022-11-20T08:34:17;100244.16;;;10.33;100.00
49122;BME280;35529;44.342;25.944;2022-11-20T08:36:44;100260.72;;;10.35;100.00
49122;BME280;35529;44.342;25.944;2022-11-20T08:39:13;100285.16;;;10.24;100.00
49122;BME280;35529;44.342;25.944;2022-11-20T08:41:39;100283.13;;;10.26;100.00
49122;BME280;35529;44.342;25.944;2022-11-20T08:44:06;100310.69;;;10.25;100.00
49122;BME280;35529;44.342;25.944;2022-11-20T08:46:33;100304.34;;;10.26;100.00
49122;BME280;35529;44.342;25.944;2022-11-20T08:49:01;100289.25;;;10.33;100.00
49122;BME280;35529;44.342;25.944;2022-11-20T08:51:27;100295.06;;;10.44;100.00
49122;BME280;35529;44.342;25.944;2022-11-20T08:53:53;100310.59;;;10.60;100.00
49122;BME280;35529;44.342;25.944;2022-11-20T08:56:19;100309.81;;;10.60;100.00
49122;BME280;35529;44.342;25.944;2022-11-20T08:58:45;100317.56;;;10.61;100.00
49122;BME280;35529;44.342;25.944;2022-11-20T09:01:11;100330.22;;;10.66;100.00
49122;BME280;35529;44.342;25.944;2022-11-20T09:03:37;100340.84;;;10.66;100.00
49122;BME280;35529;44.342;25.944;2022-11-20T09:06:05;100313.06;;;10.62;100.00
49122;BME280;35529;44.342;25.944;2022-11-20T09:08:32;100354.28;;;10.51;100.00
49122;BME280;35529;44.342;25.944;2022-11-20T09:11:00;100350.81;;;10.50;100.00
49122;BME280;35529;44.342;25.944;2022-11-20T09:13:27;100301.09;;;10.31;100.00
49122;BME280;35529;44.342;25.944;2022-11-20T09:16:00;100307.41;;;10.30;100.00
49122;BME280;35529;44.342;25.944;2022-11-20T09:18:27;100308.66;;;10.34;100.00
49122;BME280;35529;44.342;25.944;2022-11-20T09:20:57;100312.97;;;10.35;100.00
49122;BME280;35529;44.342;25.944;2022-11-20T09:23:24;100324.06;;;10.52;100.00
49122;BME280;35529;44.342;25.944;2022-11-20T09:25:50;100322.88;;;10.61;100.00
49122;BME280;35529;44.342;25.944;2022-11-20T09:28:16;100319.81;;;10.64;100.00
49122;BME280;35529;44.342;25.944;2022-11-20T09:30:44;100303.28;;;10.69;100.00
49122;BME280;35529;44.342;25.944;2022-11-20T09:33:10;100296.72;;;10.65;100.00
49122;BME280;35529;44.342;25.944;2022-11-20T09:35:36;100318.19;;;10.70;100.00
49122;BME280;35529;44.342;25.944;2022-11-20T09:38:08;100328.22;;;10.88;100.00
49122;BME280;35529;44.342;25.944;2022-11-20T09:40:38;100338.03;;;10.94;100.00
49122;BME280;35529;44.342;25.944;2022-11-20T09:51:09;100332.28;;;10.70;100.00
49122;BME280;35529;44.342;25.944;2022-11-20T09:56:21;100326.41;;;10.33;100.00
49122;BME280;35529;44.342;25.944;2022-11-20T09:58:51;100324.56;;;10.34;100.00
49122;BME280;35529;44.342;25.944;2022-11-20T10:01:21;100319.53;;;10.39;100.00
49122;BME280;35529;44.342;25.944;2022-11-20T10:06:18;100324.28;;;10.50;100.00
49122;BME280;35529;44.342;25.944;2022-11-20T10:08:49;100313.91;;;10.62;100.00
49122;BME280;35529;44.342;25.944;2022-11-20T10:16:28;100343.16;;;10.82;100.00
49122;BME280;35529;44.342;25.944;2022-11-20T10:21:50;100340.06;;;10.79;100.00
49122;BME280;35529;44.342;25.944;2022-11-20T10:29:29;100330.66;;;10.76;100.00
49122;BME280;35529;44.342;25.944;2022-11-20T10:32:03;100331.91;;;10.80;100.00
49122;BME280;35529;44.342;25.944;2022-11-20T10:34:31;100326.16;;;10.83;100.00
49122;BME280;35529;44.342;25.944;2022-11-20T10:37:05;100325.38;;;10.83;100.00
49122;BME280;35529;44.342;25.944;2022-11-20T10:39:37;100340.28;;;10.84;100.00
49122;BME280;35529;44.342;25.944;2022-11-20T10:42:15;100324.13;;;10.79;100.00
49122;BME280;35529;44.342;25.944;2022-11-20T10:44:42;100339.22;;;10.71;100.00
49122;BME280;35529;44.342;25.944;2022-11-20T10:47:30;100325.13;;;10.71;100.00
49122;BME280;35529;44.342;25.944;2022-11-20T10:49:57;100330.22;;;10.66;100.00
49122;BME280;35529;44.342;25.944;2022-11-20T10:52:40;100300.41;;;10.64;100.00
49122;BME280;35529;44.342;25.944;2022-11-20T11:00:30;100309.78;;;10.53;100.00
49122;BME280;35529;44.342;25.944;2022-11-20T11:02:56;100278.66;;;10.33;100.00
49122;BME280;35529;44.342;25.944;2022-11-20T11:08:16;100272.06;;;10.16;100.00
49122;BME280;35529;44.342;25.944;2022-11-20T11:10:51;100262.66;;;10.13;100.00
49122;BME280;35529;44.342;25.944;2022-11-20T11:13:22;100297.75;;;10.15;100.00
49122;BME280;35529;44.342;25.944;2022-11-20T11:15:48;100293.06;;;10.11;100.00
49122;BME280;35529;44.342;25.944;2022-11-20T11:18:25;100301.41;;;10.07;100.00
49122;BME280;35529;44.342;25.944;2022-11-20T11:20:52;100307.34;;;10.10;100.00
49122;BME280;35529;44.342;25.944;2022-11-20T11:23:28;100306.72;;;10.07;100.00
49122;BME280;35529;44.342;25.944;2022-11-20T11:25:59;100272.78;;;9.96;100.00
49122;BME280;35529;44.342;25.944;2022-11-20T11:28:26;100292.94;;;9.84;100.00
49122;BME280;35529;44.342;25.944;2022-11-20T11:30:53;100294.34;;;9.80;100.00
49122;BME280;35529;44.342;25.944;2022-11-20T11:33:20;100318.00;;;9.81;100.00
49122;BME280;35529;44.342;25.944;2022-11-20T11:35:50;100292.66;;;9.72;100.00
49122;BME280;35529;44.342;25.944;2022-11-20T11:38:27;100301.81;;;9.69;100.00
49122;BME280;35529;44.342;25.944;2022-11-20T11:40:54;100274.06;;;9.65;100.00
49122;BME280;35529;44.342;25.944;2022-11-20T11:43:22;100305.47;;;9.68;100.00
49122;BME280;35529;44.342;25.944;2022-11-20T11:46:14;100303.31;;;9.79;100.00
49122;BME280;35529;44.342;25.944;2022-11-20T11:48:58;100301.69;;;9.84;100.00
49122;BME280;35529;44.342;25.944;2022-11-20T11:51:29;100292.34;;;9.88;100.00
49122;BME280;35529;44.342;25.944;2022-11-20T11:53:58;100303.84;;;10.02;100.00
49122;BME280;35529;44.342;25.944;2022-11-20T11:56:33;100325.69;;;10.11;100.00
49122;BME280;35529;44.342;25.944;2022-11-20T11:59:00;100319.59;;;10.11;100.00
49122;BME280;35529;44.342;25.944;2022-11-20T12:06:53;100323.00;;;10.04;100.00
49122;BME280;35529;44.342;25.944;2022-11-20T12:09:24;100309.97;;;10.10;100.00
49122;BME280;35529;44.342;25.944;2022-11-20T12:11:54;100303.72;;;10.24;100.00
49122;BME280;35529;44.342;25.944;2022-11-20T12:14:35;100303.09;;;10.22;100.00
49122;BME280;35529;44.342;25.944;2022-11-20T12:17:02;100317.72;;;10.04;100.00
49122;BME280;35529;44.342;25.944;2022-11-20T12:19:30;100329.97;;;10.05;100.00
49122;BME280;35529;44.342;25.944;2022-11-20T12:27:25;100310.84;;;9.47;100.00
49122;BME280;35529;44.342;25.944;2022-11-20T12:30:04;100309.56;;;9.36;100.00
49122;BME280;35529;44.342;25.944;2022-11-20T12:32:54;100305.03;;;9.30;100.00
49122;BME280;35529;44.342;25.944;2022-11-20T12:43:37;100304.38;;;9.56;100.00
49122;BME280;35529;44.342;25.944;2022-11-20T12:46:37;100292.94;;;9.49;100.00
49122;BME280;35529;44.342;25.944;2022-11-20T13:05:27;100275.22;;;9.56;100.00
49122;BME280;35529;44.342;25.944;2022-11-20T13:07:57;100268.19;;;9.70;100.00
49122;BME280;35529;44.342;25.944;2022-11-20T13:10:38;100260.06;;;9.78;100.00
49122;BME280;35529;44.342;25.944;2022-11-20T13:18:42;100229.03;;;9.72;100.00
49122;BME280;35529;44.342;25.944;2022-11-20T13:21:52;100239.22;;;9.75;100.00
49122;BME280;35529;44.342;25.944;2022-11-20T13:24:06;100231.94;;;9.84;100.00
49122;BME280;35529;44.342;25.944;2022-11-20T13:26:33;100224.22;;;9.89;100.00
49122;BME280;35529;44.342;25.944;2022-11-20T13:29:07;100227.09;;;9.94;100.00
49122;BME280;35529;44.342;25.944;2022-11-20T13:31:35;100231.56;;;9.94;100.00
49122;BME280;35529;44.342;25.944;2022-11-20T13:34:04;100220.16;;;9.93;100.00
49122;BME280;35529;44.342;25.944;2022-11-20T13:36:31;100233.41;;;9.93;100.00
49122;BME280;35529;44.342;25.944;2022-11-20T13:38:58;100248.53;;;9.99;100.00
49122;BME280;35529;44.342;25.944;2022-11-20T13:41:28;100247.50;;;10.00;100.00
49122;BME280;35529;44.342;25.944;2022-11-20T13:44:05;100248.94;;;10.03;100.00
49122;BME280;35529;44.342;25.944;2022-11-20T13:46:39;100255.91;;;10.04;100.00
49122;BME280;35529;44.342;25.944;2022-11-20T13:49:07;100261.81;;;9.99;100.00
49122;BME280;35529;44.342;25.944;2022-11-20T13:51:44;100273.63;;;9.97;100.00
49122;BME280;35529;44.342;25.944;2022-11-20T13:59:46;100274.97;;;9.79;100.00
49122;BME280;35529;44.342;25.944;2022-11-20T14:02:20;100278.44;;;9.80;100.00
49122;BME280;35529;44.342;25.944;2022-11-20T14:04:48;100284.13;;;9.77;100.00
49122;BME280;35529;44.342;25.944;2022-11-20T14:07:15;100288.00;;;9.74;100.00
49122;BME280;35529;44.342;25.944;2022-11-20T14:09:49;100289.00;;;9.73;100.00
49122;BME280;35529;44.342;25.944;2022-11-20T14:12:16;100289.59;;;9.75;100.00
49122;BME280;35529;44.342;25.944;2022-11-20T14:14:47;100301.06;;;9.76;100.00
49122;BME280;35529;44.342;25.944;2022-11-20T14:17:24;100297.97;;;9.72;100.00